createdAt,value
2023-03-26T00:00:34.710Z,100082.16
2023-03-26T00:03:39.650Z,100080.22
2023-03-26T00:06:42.452Z,100084.34
2023-03-26T00:09:47.274Z,100072.19
2023-03-26T00:12:50.432Z,100077.28
2023-03-26T00:15:54.563Z,100084.13
2023-03-26T00:18:58.764Z,100090.06
2023-03-26T00:22:04.569Z,100082.94
2023-03-26T00:25:09.623Z,100088.84
2023-03-26T00:28:13.902Z,100099.19
2023-03-26T00:31:17.257Z,100091.28
2023-03-26T00:34:20.830Z,100098.97
2023-03-26T00:37:27.737Z,100089.91
2023-03-26T00:40:32.227Z,100093.47
2023-03-26T00:43:36.268Z,100080.06
2023-03-26T00:46:39.759Z,100089.09
2023-03-26T00:49:42.926Z,100074.53
2023-03-26T00:52:47.073Z,100069.12
2023-03-26T00:56:00.413Z,100072.13
2023-03-26T00:59:04.599Z,100075.28
2023-03-26T01:02:11.734Z,100074.22
2023-03-26T01:05:37.010Z,100066.25
2023-03-26T01:08:46.696Z,100069.19
2023-03-26T01:11:52.449Z,100065.50
2023-03-26T01:15:01.535Z,100049.31
2023-03-26T01:18:10.171Z,100061.78
2023-03-26T01:21:28.772Z,100061.00
2023-03-26T01:24:34.568Z,100059.12
2023-03-26T01:27:46.993Z,100053.84
2023-03-26T01:31:12.478Z,100050.19
2023-03-26T01:34:31.597Z,100055.56
2023-03-26T01:38:13.023Z,100050.81
2023-03-26T01:41:48.222Z,100050.75
2023-03-26T01:44:59.508Z,100049.69
2023-03-26T01:48:02.399Z,100060.31
2023-03-26T01:51:07.858Z,100061.75
2023-03-26T01:54:19.002Z,100070.13
2023-03-26T01:57:28.576Z,100062.72
2023-03-26T02:00:43.998Z,100060.59
2023-03-26T02:03:53.949Z,100053.34
2023-03-26T02:07:09.341Z,100065.97
2023-03-26T02:10:29.569Z,100055.44
2023-03-26T02:13:32.938Z,100063.25
2023-03-26T02:16:35.750Z,100068.94
2023-03-26T02:19:42.698Z,100070.53
2023-03-26T02:22:47.283Z,100072.19
2023-03-26T02:25:53.778Z,100067.87
2023-03-26T02:28:58.447Z,100054.16
2023-03-26T02:32:08.821Z,100070.72
2023-03-26T02:35:12.903Z,100071.47
2023-03-26T02:38:17.345Z,100062.31
2023-03-26T02:41:20.541Z,100065.91
2023-03-26T02:44:24.607Z,100051.28
2023-03-26T02:47:36.530Z,100053.75
2023-03-26T02:50:43.691Z,100059.06
2023-03-26T02:53:48.238Z,100062.47
2023-03-26T02:56:56.189Z,100060.59
2023-03-26T03:00:08.921Z,100064.66
2023-03-26T03:03:17.297Z,100052.84
2023-03-26T03:06:22.852Z,100051.34
2023-03-26T03:09:26.366Z,100056.03
2023-03-26T03:12:33.770Z,100054.06
2023-03-26T03:15:39.097Z,100043.50
2023-03-26T03:18:43.226Z,100043.13
2023-03-26T03:21:46.591Z,100035.41
2023-03-26T03:24:49.370Z,100047.28
2023-03-26T03:27:54.006Z,100041.03
2023-03-26T03:31:00.028Z,100051.72
2023-03-26T03:34:04.738Z,100059.09
2023-03-26T03:37:10.509Z,100036.03
2023-03-26T03:40:15.948Z,100056.81
2023-03-26T03:43:19.507Z,100054.91
2023-03-26T03:46:23.960Z,100053.69
2023-03-26T03:49:28.866Z,100049.31
2023-03-26T03:52:32.752Z,100055.25
2023-03-26T03:55:46.618Z,100060.34
2023-03-26T03:58:52.598Z,100053.22
2023-03-26T04:01:56.383Z,100063.28
2023-03-26T04:04:59.409Z,100070.84
2023-03-26T04:08:03.718Z,100072.28
2023-03-26T04:11:08.128Z,100083.09
2023-03-26T04:14:20.903Z,100094.19
2023-03-26T04:17:25.088Z,100087.25
2023-03-26T04:20:30.100Z,100085.56
2023-03-26T04:23:40.036Z,100081.78
2023-03-26T04:26:48.141Z,100089.28
2023-03-26T04:30:01.247Z,100080.28
2023-03-26T04:33:06.725Z,100080.75
2023-03-26T04:36:16.114Z,100072.56
2023-03-26T04:39:23.511Z,100078.63
2023-03-26T04:42:33.483Z,100075.91
2023-03-26T04:45:37.014Z,100070.50
2023-03-26T04:48:41.656Z,100070.75
2023-03-26T04:51:50.928Z,100078.81
2023-03-26T04:54:57.998Z,100076.44
2023-03-26T04:58:09.492Z,100087.06
2023-03-26T05:01:25.070Z,100081.81
2023-03-26T05:04:29.899Z,100076.72
2023-03-26T05:07:36.951Z,100086.62
2023-03-26T05:10:40.443Z,100087.94
2023-03-26T05:13:47.082Z,100077.63
2023-03-26T05:16:53.416Z,100079.62
2023-03-26T05:19:58.638Z,100082.41
2023-03-26T05:23:03.063Z,100069.56
2023-03-26T05:26:14.488Z,100083.56
2023-03-26T05:29:20.859Z,100084.59
2023-03-26T05:32:29.184Z,100085.88
2023-03-26T05:35:35.623Z,100083.25
2023-03-26T05:38:47.620Z,100073.50
2023-03-26T05:41:53.109Z,100069.56
2023-03-26T05:45:00.627Z,100069.88
2023-03-26T05:48:07.897Z,100059.03
2023-03-26T05:51:13.169Z,100057.37
2023-03-26T05:54:18.272Z,100063.13
2023-03-26T05:57:35.802Z,100066.41
2023-03-26T06:00:48.663Z,100062.47
2023-03-26T06:03:59.063Z,100066.41
2023-03-26T06:07:03.967Z,100055.78
2023-03-26T06:10:18.418Z,100049.59
2023-03-26T06:13:29.608Z,100050.53
2023-03-26T06:16:43.626Z,100060.31
2023-03-26T06:19:55.382Z,100042.28
2023-03-26T06:23:05.527Z,100040.06
2023-03-26T06:26:10.368Z,100040.87
2023-03-26T06:29:15.828Z,100041.75
2023-03-26T06:32:23.625Z,100055.78
2023-03-26T06:35:34.848Z,100049.88
2023-03-26T06:38:46.600Z,100052.28
2023-03-26T06:41:51.460Z,100054.50
2023-03-26T06:44:56.211Z,100050.09
2023-03-26T06:48:05.687Z,100047.47
2023-03-26T06:51:12.198Z,100042.75
2023-03-26T06:54:29.741Z,100054.81
2023-03-26T06:57:33.744Z,100059.47
2023-03-26T07:00:47.328Z,100067.78
2023-03-26T07:04:03.040Z,100063.59
2023-03-26T07:07:21.770Z,100064.88
2023-03-26T07:10:35.782Z,100061.16
2023-03-26T07:13:47.933Z,100071.50
2023-03-26T07:17:01.648Z,100071.59
2023-03-26T07:20:15.655Z,100073.88
2023-03-26T07:23:24.624Z,100069.66
2023-03-26T07:26:51.841Z,100061.97
2023-03-26T07:30:10.322Z,100065.13
2023-03-26T07:33:29.017Z,100051.53
2023-03-26T07:36:44.622Z,100051.09
2023-03-26T07:40:11.573Z,100056.72
2023-03-26T07:43:22.159Z,100056.69
2023-03-26T07:46:54.562Z,100052.06
2023-03-26T07:49:59.177Z,100058.78
2023-03-26T07:53:04.979Z,100051.97
2023-03-26T07:56:43.021Z,100050.19
2023-03-26T08:00:15.461Z,100043.00
2023-03-26T08:04:24.025Z,100048.16
2023-03-26T08:07:48.690Z,100036.94
2023-03-26T08:11:27.697Z,100048.97
2023-03-26T08:15:25.607Z,100050.13
2023-03-26T08:18:56.730Z,100044.34
2023-03-26T08:22:12.757Z,100045.47
2023-03-26T08:25:34.175Z,100049.91
2023-03-26T08:28:49.701Z,100046.38
2023-03-26T08:32:00.211Z,100044.59
2023-03-26T08:35:22.522Z,100033.59
2023-03-26T08:38:31.699Z,100018.88
2023-03-26T08:42:07.985Z,100023.31
2023-03-26T08:45:33.309Z,100026.87
2023-03-26T08:48:56.181Z,100023.59
2023-03-26T08:52:26.664Z,100005.88
2023-03-26T08:55:57.498Z,100013.53
2023-03-26T08:59:34.486Z,100018.31
2023-03-26T09:03:12.869Z,100006.56
2023-03-26T09:06:47.635Z,100007.88
2023-03-26T09:10:18.834Z,100004.31
2023-03-26T09:13:31.092Z,99996.22
2023-03-26T09:17:34.812Z,99988.56
2023-03-26T09:47:11.921Z,99946.56
2023-03-26T09:50:39.221Z,99946.56
2023-03-26T09:54:21.123Z,99939.91
2023-03-26T09:57:42.897Z,99937.03
2023-03-26T10:00:55.164Z,99935.53
2023-03-26T10:04:39.057Z,99927.25
2023-03-26T10:07:59.940Z,99927.25
2023-03-26T10:11:46.549Z,99920.47
2023-03-26T10:15:34.646Z,99908.78
2023-03-26T10:19:06.161Z,99912.94
2023-03-26T10:22:27.041Z,99913.34
2023-03-26T10:25:45.848Z,99910.03
2023-03-26T10:29:22.264Z,99887.66
2023-03-26T10:33:15.096Z,99886.81
2023-03-26T10:36:32.666Z,99883.38
2023-03-26T10:39:50.082Z,99878.44
2023-03-26T10:43:21.310Z,99877.88
2023-03-26T10:46:52.213Z,99860.72
2023-03-26T10:50:23.121Z,99856.13
2023-03-26T10:53:42.912Z,99854.25
2023-03-26T10:56:58.000Z,99854.56
2023-03-26T11:00:18.261Z,99833.56
2023-03-26T11:03:57.907Z,99838.69
2023-03-26T11:07:11.470Z,99830.38
2023-03-26T11:10:26.160Z,99829.88
2023-03-26T11:13:49.119Z,99820.44
2023-03-26T11:17:06.677Z,99808.22
2023-03-26T11:20:55.150Z,99799.97
2023-03-26T11:24:49.217Z,99789.22
2023-03-26T11:28:22.058Z,99789.25
2023-03-26T11:31:29.275Z,99793.34
2023-03-26T11:35:10.001Z,99783.25
2023-03-26T11:38:20.460Z,99777.31
2023-03-26T11:41:28.293Z,99767.97
2023-03-26T11:45:03.087Z,99755.31
2023-03-26T11:48:32.026Z,99739.56
2023-03-26T11:51:55.098Z,99733.09
2023-03-26T11:55:00.198Z,99729.50
2023-03-26T11:58:28.246Z,99735.00
2023-03-26T12:01:52.520Z,99725.16
2023-03-26T12:05:29.517Z,99722.25
2023-03-26T12:08:39.442Z,99718.09
2023-03-26T12:11:45.251Z,99709.13
2023-03-26T12:14:52.205Z,99700.09
2023-03-26T12:17:58.350Z,99697.44
2023-03-26T12:21:09.977Z,99699.00
2023-03-26T12:24:42.962Z,99688.63
2023-03-26T12:27:52.958Z,99684.47
2023-03-26T12:31:15.866Z,99670.31
2023-03-26T12:34:36.922Z,99664.97
2023-03-26T12:37:47.009Z,99659.97
2023-03-26T12:44:50.513Z,99662.34
2023-03-26T12:44:59.104Z,99653.03
2023-03-26T12:48:16.148Z,99634.28
2023-03-26T12:51:46.168Z,99620.19
2023-03-26T12:55:13.784Z,99627.13
2023-03-26T12:58:45.231Z,99624.31
2023-03-26T13:02:23.134Z,99623.31
2023-03-26T13:05:32.746Z,99627.16
2023-03-26T13:09:03.935Z,99620.56
2023-03-26T13:12:25.879Z,99602.56
2023-03-26T13:15:38.870Z,99601.31
2023-03-26T13:19:24.865Z,99582.84
2023-03-26T13:23:00.367Z,99589.00
2023-03-26T13:26:06.862Z,99578.09
2023-03-26T13:29:21.121Z,99571.31
2023-03-26T13:33:15.338Z,99568.97
2023-03-26T13:36:58.967Z,99555.84
2023-03-26T13:44:24.200Z,99543.72
2023-03-26T13:47:34.100Z,99541.50
2023-03-26T13:50:44.921Z,99534.25
2023-03-26T13:53:54.917Z,99529.37
2023-03-26T13:57:25.241Z,99534.34
2023-03-26T14:00:41.274Z,99532.59
2023-03-26T14:04:08.230Z,99528.25
2023-03-26T14:07:47.152Z,99520.37
2023-03-26T14:11:00.241Z,99505.50
2023-03-26T14:14:23.757Z,99499.47
2023-03-26T14:17:49.352Z,99499.63
2023-03-26T14:21:25.177Z,99498.59
2023-03-26T14:24:54.444Z,99494.94
2023-03-26T14:28:50.315Z,99492.28
2023-03-26T14:32:35.555Z,99486.25
2023-03-26T14:36:01.421Z,99486.25
2023-03-26T14:39:32.236Z,99471.50
2023-03-26T14:42:43.206Z,99468.97
2023-03-26T14:46:17.141Z,99469.75
2023-03-26T14:49:52.052Z,99466.25
2023-03-26T14:53:01.435Z,99462.94
2023-03-26T14:56:27.272Z,99460.37
2023-03-26T15:00:25.159Z,99440.28
2023-03-26T15:04:01.134Z,99445.34
2023-03-26T15:07:40.231Z,99429.44
2023-03-26T15:11:11.126Z,99415.50
2023-03-26T15:14:34.511Z,99413.09
2023-03-26T15:17:53.495Z,99416.91
2023-03-26T15:21:43.638Z,99420.59
2023-03-26T15:25:28.362Z,99418.22
2023-03-26T15:28:50.378Z,99420.03
2023-03-26T15:32:31.522Z,99408.59
2023-03-26T15:36:00.872Z,99398.91
2023-03-26T15:39:41.624Z,99394.47
2023-03-26T15:43:01.723Z,99394.59
2023-03-26T15:46:13.397Z,99395.69
2023-03-26T15:49:45.279Z,99394.06
2023-03-26T15:53:00.465Z,99387.09
2023-03-26T15:56:37.282Z,99390.72
2023-03-26T15:59:54.288Z,99386.41
2023-03-26T16:03:11.416Z,99383.00
2023-03-26T16:06:42.338Z,99382.19
2023-03-26T16:10:16.102Z,99364.72
2023-03-26T16:13:50.243Z,99360.37
2023-03-26T16:17:08.746Z,99364.84
2023-03-26T16:20:38.800Z,99351.75
2023-03-26T16:23:47.219Z,99336.94
2023-03-26T16:26:52.758Z,99333.50
2023-03-26T16:30:02.444Z,99326.56
2023-03-26T16:33:23.320Z,99323.97
2023-03-26T16:36:50.003Z,99322.25
2023-03-26T16:40:23.549Z,99322.28
2023-03-26T16:43:34.629Z,99316.19
2023-03-26T16:46:48.245Z,99316.19
2023-03-26T16:50:21.290Z,99321.44
2023-03-26T16:53:46.460Z,99317.06
2023-03-26T16:56:49.688Z,99310.94
2023-03-26T17:00:42.141Z,99310.09
2023-03-26T17:04:02.250Z,99314.47
2023-03-26T17:07:35.476Z,99323.22
2023-03-26T17:11:04.497Z,99323.22
2023-03-26T17:14:33.213Z,99320.59
2023-03-26T17:17:54.379Z,99318.81
2023-03-26T17:21:20.887Z,99317.03
2023-03-26T17:24:55.247Z,99319.66
2023-03-26T17:28:28.397Z,99310.91
2023-03-26T17:31:56.244Z,99308.28
2023-03-26T17:35:10.081Z,99311.78
2023-03-26T17:38:26.838Z,99313.53
2023-03-26T17:42:03.212Z,99313.50
2023-03-26T17:45:16.017Z,99308.28
2023-03-26T17:48:28.357Z,99301.28
2023-03-26T17:51:52.465Z,99298.66
2023-03-26T17:55:08.094Z,99310.00
2023-03-26T17:58:37.873Z,99306.44
2023-03-26T18:02:12.098Z,99297.72
2023-03-26T18:05:28.274Z,99296.84
2023-03-26T18:08:56.255Z,99298.56
2023-03-26T18:12:50.761Z,99298.50
2023-03-26T18:16:11.536Z,99294.97
2023-03-26T18:19:26.254Z,99299.31
2023-03-26T18:22:30.896Z,99301.88
2023-03-26T18:25:35.929Z,99290.47
2023-03-26T18:28:56.499Z,99293.94
2023-03-26T18:32:12.312Z,99294.75
2023-03-26T18:35:22.306Z,99294.75
2023-03-26T18:38:35.974Z,99286.84
2023-03-26T18:41:49.275Z,99285.09
2023-03-26T18:45:02.171Z,99278.09
2023-03-26T18:48:24.206Z,99282.47
2023-03-26T18:51:43.284Z,99280.72
2023-03-26T18:55:06.110Z,99271.19
2023-03-26T18:58:31.275Z,99263.28
2023-03-26T19:01:46.844Z,99251.94
2023-03-26T19:04:56.799Z,99256.25
2023-03-26T19:08:10.574Z,99244.06
2023-03-26T19:11:24.252Z,99249.28
2023-03-26T19:14:54.619Z,99233.59
2023-03-26T19:18:15.243Z,99236.22
2023-03-26T19:21:24.181Z,99227.50
2023-03-26T19:24:35.252Z,99228.38
2023-03-26T19:27:44.002Z,99217.91
2023-03-26T19:31:16.323Z,99217.03
2023-03-26T19:34:42.794Z,99213.53
2023-03-26T19:37:58.666Z,99213.53
2023-03-26T19:41:10.225Z,99198.69
2023-03-26T19:44:34.414Z,99196.06
2023-03-26T19:47:52.166Z,99190.84
2023-03-26T19:51:12.157Z,99187.34
2023-03-26T19:54:26.433Z,99178.59
2023-03-26T19:57:43.658Z,99170.72
2023-03-26T20:00:56.760Z,99171.59
2023-03-26T20:04:12.375Z,99160.22
2023-03-26T20:07:35.415Z,99153.25
2023-03-26T20:10:44.754Z,99145.38
2023-03-26T20:13:52.622Z,99139.28
2023-03-26T20:16:59.156Z,99135.81
2023-03-26T20:20:11.925Z,99126.22
2023-03-26T20:23:19.368Z,99111.41
2023-03-26T20:26:24.250Z,99102.69
2023-03-26T20:29:34.656Z,99099.22
2023-03-26T20:32:38.887Z,99088.78
2023-03-26T20:35:54.407Z,99076.59
2023-03-26T20:39:09.237Z,99060.91
2023-03-26T20:42:15.987Z,99066.13
2023-03-26T20:45:23.930Z,99066.09
2023-03-26T20:48:27.883Z,99066.13
2023-03-26T20:51:32.092Z,99071.31
2023-03-26T20:54:43.619Z,99073.94
2023-03-26T20:57:55.296Z,99059.09
2023-03-26T21:01:01.300Z,99061.69
2023-03-26T21:04:07.762Z,99052.12
2023-03-26T21:07:20.536Z,99059.09
2023-03-26T21:10:34.530Z,99058.22
2023-03-26T21:14:17.305Z,99061.69
2023-03-26T21:17:22.264Z,99074.72
2023-03-26T21:20:34.170Z,99079.13
2023-03-26T21:23:45.614Z,99069.56
2023-03-26T21:27:13.262Z,99079.19
2023-03-26T21:30:20.254Z,99083.53
2023-03-26T21:33:25.597Z,99062.63
2023-03-26T21:36:33.221Z,99074.81
2023-03-26T21:39:37.172Z,99082.62
2023-03-26T21:42:42.326Z,99098.28
2023-03-26T21:45:54.047Z,99123.56
2023-03-26T21:48:58.103Z,99113.06
2023-03-26T21:52:01.827Z,99125.22
2023-03-26T21:55:08.032Z,99126.84
2023-03-26T21:58:23.752Z,99123.25
2023-03-26T22:02:09.435Z,99121.44
2023-03-26T22:05:18.172Z,99119.56
2023-03-26T22:08:36.899Z,99128.12
2023-03-26T22:11:42.596Z,99126.28
2023-03-26T22:14:49.209Z,99128.84
2023-03-26T22:17:59.215Z,99110.53
2023-03-26T22:21:04.724Z,99112.19
2023-03-26T22:24:08.658Z,99116.50
2023-03-26T22:27:12.862Z,99112.13
2023-03-26T22:30:21.242Z,99095.53
2023-03-26T22:33:36.173Z,99098.94
2023-03-26T22:36:40.461Z,99093.63
2023-03-26T22:39:43.686Z,99089.25
2023-03-26T22:42:47.110Z,99090.03
2023-03-26T22:45:57.301Z,99082.12
2023-03-26T22:49:01.376Z,99068.12
2023-03-26T22:52:09.599Z,99068.09
2023-03-26T22:55:12.935Z,99066.31
2023-03-26T22:58:16.891Z,99065.44
2023-03-26T23:01:23.389Z,99065.38
2023-03-26T23:04:32.458Z,99054.00
2023-03-26T23:07:40.280Z,99050.53
2023-03-26T23:10:43.985Z,99049.69
2023-03-26T23:13:48.072Z,99053.06
2023-03-26T23:16:51.800Z,99047.84
2023-03-26T23:19:55.714Z,99049.53
2023-03-26T23:22:58.644Z,99043.22
2023-03-26T23:26:05.902Z,99049.28
2023-03-26T23:29:09.507Z,99036.97
2023-03-26T23:32:23.604Z,99024.72
2023-03-26T23:35:28.502Z,99016.91
2023-03-26T23:38:43.012Z,99002.97
2023-03-26T23:41:50.644Z,98997.69
2023-03-26T23:44:56.664Z,98974.94
2023-03-26T23:47:59.276Z,98983.72
2023-03-26T23:51:04.417Z,98975.88
2023-03-26T23:54:08.737Z,98963.63
2023-03-26T23:57:11.916Z,98971.53
